createdAt,value
2019-01-18T00:00:52.736Z,0.93
2019-01-18T00:03:24.042Z,1.37
2019-01-18T00:05:54.046Z,1.40
2019-01-18T00:08:24.029Z,1.20
2019-01-18T00:10:54.023Z,1.10
2019-01-18T00:13:24.009Z,1.00
2019-01-18T00:15:54.017Z,1.10
2019-01-18T00:18:25.176Z,0.90
2019-01-18T00:20:55.171Z,1.20
2019-01-18T00:23:25.454Z,1.20
2019-01-18T00:25:56.185Z,0.97
2019-01-18T00:28:26.923Z,0.90
2019-01-18T00:30:57.243Z,1.00
2019-01-18T00:33:27.304Z,1.00
2019-01-18T00:35:57.332Z,1.07
2019-01-18T00:38:28.288Z,0.90
2019-01-18T00:40:58.335Z,0.98
2019-01-18T00:43:28.333Z,1.23
2019-01-18T00:45:58.335Z,1.17
2019-01-18T00:48:28.355Z,1.10
2019-01-18T00:50:58.341Z,1.20
2019-01-18T00:53:28.368Z,1.20
2019-01-18T00:55:58.727Z,1.20
2019-01-18T00:58:28.701Z,1.00
2019-01-18T01:00:59.088Z,1.00
2019-01-18T01:03:29.099Z,1.27
2019-01-18T01:05:59.185Z,1.33
2019-01-18T01:08:29.186Z,1.03
2019-01-18T01:10:59.173Z,0.90
2019-01-18T01:13:29.173Z,1.20
2019-01-18T01:15:59.564Z,1.27
2019-01-18T01:18:29.561Z,0.90
2019-01-18T01:20:59.545Z,0.80
2019-01-18T01:23:29.584Z,0.70
2019-01-18T01:25:59.707Z,0.80
2019-01-18T01:28:29.723Z,0.80
2019-01-18T01:30:59.699Z,0.90
2019-01-18T01:33:29.693Z,0.60
2019-01-18T01:35:59.733Z,0.80
2019-01-18T01:38:30.045Z,0.60
2019-01-18T01:41:00.037Z,0.90
2019-01-18T01:43:30.062Z,0.87
2019-01-18T01:46:00.139Z,0.80
2019-01-18T01:48:30.116Z,0.70
2019-01-18T01:51:00.290Z,0.98
2019-01-18T01:53:30.650Z,0.90
2019-01-18T01:56:00.757Z,1.00
2019-01-18T01:58:31.061Z,1.00
2019-01-18T02:01:01.061Z,1.00
2019-01-18T02:03:31.069Z,1.15
2019-01-18T02:06:01.077Z,1.23
2019-01-18T02:08:31.083Z,1.07
2019-01-18T02:11:01.798Z,1.00
2019-01-18T02:13:32.176Z,1.10
2019-01-18T02:16:02.523Z,1.40
2019-01-18T02:18:32.507Z,1.43
2019-01-18T02:21:02.523Z,1.20
2019-01-18T02:23:32.605Z,1.20
2019-01-18T02:26:03.094Z,1.65
2019-01-18T02:28:33.453Z,1.40
2019-01-18T02:31:03.463Z,1.40
2019-01-18T02:33:34.423Z,1.52
2019-01-18T02:36:04.624Z,1.42
2019-01-18T02:38:34.603Z,1.27
2019-01-18T02:41:04.603Z,1.20
2019-01-18T02:43:34.979Z,1.40
2019-01-18T02:46:04.985Z,1.10
2019-01-18T02:48:34.986Z,1.77
2019-01-18T02:51:04.995Z,1.70
2019-01-18T02:53:35.034Z,2.95
2019-01-18T02:56:05.171Z,1.43
2019-01-18T02:58:35.183Z,2.20
2019-01-18T03:01:05.273Z,1.70
2019-01-18T03:03:35.359Z,1.60
2019-01-18T03:06:05.825Z,1.55
2019-01-18T03:08:36.246Z,1.47
2019-01-18T03:11:06.574Z,1.80
2019-01-18T03:13:36.567Z,1.30
2019-01-18T03:16:06.593Z,1.90
2019-01-18T03:18:36.586Z,2.12
2019-01-18T03:21:06.951Z,1.77
2019-01-18T03:23:36.943Z,1.72
2019-01-18T03:26:06.941Z,1.82
2019-01-18T03:28:36.938Z,1.85
2019-01-18T03:31:06.976Z,1.70
2019-01-18T03:33:37.365Z,1.40
2019-01-18T03:36:07.379Z,1.70
2019-01-18T03:38:37.369Z,1.50
2019-01-18T03:41:08.121Z,1.77
2019-01-18T03:43:38.775Z,1.80
2019-01-18T03:46:08.798Z,1.60
2019-01-18T03:48:38.786Z,1.60
2019-01-18T03:51:08.789Z,1.50
2019-01-18T03:53:38.809Z,2.10
2019-01-18T03:56:08.894Z,1.60
2019-01-18T03:58:38.899Z,2.22
2019-01-18T04:01:09.285Z,1.82
2019-01-18T04:03:39.310Z,2.10
2019-01-18T04:06:09.319Z,1.85
2019-01-18T04:08:39.304Z,2.27
2019-01-18T04:11:09.649Z,2.00
2019-01-18T04:13:39.663Z,2.50
2019-01-18T04:16:10.074Z,2.37
2019-01-18T04:18:40.435Z,1.85
2019-01-18T04:21:10.847Z,1.70
2019-01-18T04:23:40.851Z,1.90
2019-01-18T04:26:10.876Z,2.15
2019-01-18T04:28:40.882Z,1.90
2019-01-18T04:31:11.309Z,2.02
2019-01-18T04:33:41.305Z,1.85
2019-01-18T04:36:11.359Z,1.75
2019-01-18T04:38:41.754Z,2.40
2019-01-18T04:41:12.098Z,2.30
2019-01-18T04:43:42.083Z,1.82
2019-01-18T04:46:12.455Z,2.05
2019-01-18T04:48:42.461Z,1.92
2019-01-18T04:51:12.509Z,1.90
2019-01-18T04:53:42.515Z,1.98
2019-01-18T04:56:12.493Z,2.60
2019-01-18T04:58:42.522Z,1.85
2019-01-18T05:01:12.610Z,1.80
2019-01-18T05:03:42.962Z,1.70
2019-01-18T05:06:13.831Z,2.22
2019-01-18T05:08:43.823Z,1.60
2019-01-18T05:11:13.823Z,2.17
2019-01-18T05:13:43.818Z,1.87
2019-01-18T05:16:14.654Z,2.10
2019-01-18T05:18:44.662Z,2.10
2019-01-18T05:21:14.662Z,1.90
2019-01-18T05:23:45.042Z,2.05
2019-01-18T05:26:15.016Z,1.80
2019-01-18T05:28:45.108Z,1.75
2019-01-18T05:31:15.128Z,2.20
2019-01-18T05:33:45.145Z,2.00
2019-01-18T05:36:15.128Z,2.12
2019-01-18T05:38:45.181Z,1.67
2019-01-18T05:41:15.172Z,2.15
2019-01-18T05:43:45.178Z,2.05
2019-01-18T05:46:15.204Z,2.00
2019-01-18T05:48:45.213Z,1.95
2019-01-18T05:51:15.210Z,1.80
2019-01-18T05:53:45.783Z,2.05
2019-01-18T05:56:15.783Z,1.82
2019-01-18T05:58:46.222Z,2.37
2019-01-18T06:01:17.206Z,1.35
2019-01-18T06:03:47.650Z,2.37
2019-01-18T06:06:17.984Z,1.98
2019-01-18T06:08:48.062Z,2.22
2019-01-18T06:11:18.080Z,2.15
2019-01-18T06:13:48.445Z,2.15
2019-01-18T06:16:18.451Z,2.02
2019-01-18T06:18:48.470Z,2.15
2019-01-18T06:21:18.729Z,2.00
2019-01-18T06:23:49.195Z,2.40
2019-01-18T06:26:19.577Z,2.12
2019-01-18T06:28:49.774Z,2.33
2019-01-18T06:31:19.773Z,2.12
2019-01-18T06:33:49.772Z,2.10
2019-01-18T06:36:19.757Z,1.80
2019-01-18T06:38:49.767Z,2.12
2019-01-18T06:41:26.572Z,2.12
2019-01-18T06:43:56.577Z,2.33
2019-01-18T06:46:26.574Z,2.10
2019-01-18T06:48:57.485Z,2.17
2019-01-18T06:51:27.494Z,2.20
2019-01-18T06:53:57.563Z,2.10
2019-01-18T06:56:27.600Z,2.12
2019-01-18T06:58:57.976Z,2.20
2019-01-18T07:01:28.027Z,2.22
2019-01-18T07:03:58.961Z,1.92
2019-01-18T07:06:29.631Z,2.05
2019-01-18T07:09:00.162Z,2.00
2019-01-18T07:11:31.936Z,1.90
2019-01-18T07:14:01.951Z,1.90
2019-01-18T07:16:32.274Z,1.82
2019-01-18T07:19:02.282Z,2.15
2019-01-18T07:21:32.729Z,2.10
2019-01-18T07:24:03.151Z,1.92
2019-01-18T07:26:33.525Z,2.50
2019-01-18T07:29:03.543Z,2.33
2019-01-18T07:31:33.549Z,2.10
2019-01-18T07:34:03.530Z,2.05
2019-01-18T07:36:33.527Z,2.02
2019-01-18T07:39:05.386Z,2.40
2019-01-18T07:41:36.461Z,2.02
2019-01-18T07:44:06.580Z,1.87
2019-01-18T07:46:36.591Z,2.10
2019-01-18T07:49:06.605Z,2.10
2019-01-18T07:51:36.610Z,1.90
2019-01-18T07:54:06.611Z,2.00
2019-01-18T07:56:37.030Z,2.20
2019-01-18T07:59:07.029Z,2.40
2019-01-18T08:01:37.104Z,2.55
2019-01-18T08:04:07.031Z,2.30
2019-01-18T08:06:37.031Z,2.30
2019-01-18T08:09:08.877Z,2.17
2019-01-18T08:11:38.867Z,1.90
2019-01-18T08:14:10.426Z,2.12
2019-01-18T08:16:40.811Z,2.20
2019-01-18T08:19:10.808Z,1.80
2019-01-18T08:21:40.887Z,2.10
2019-01-18T08:24:10.974Z,1.95
2019-01-18T08:26:41.004Z,2.00
2019-01-18T08:29:11.352Z,2.80
2019-01-18T08:31:41.345Z,2.60
2019-01-18T08:34:11.351Z,2.33
2019-01-18T08:36:41.970Z,2.27
2019-01-18T08:39:11.966Z,2.60
2019-01-18T08:41:41.978Z,1.80
2019-01-18T08:44:11.970Z,2.72
2019-01-18T08:46:42.014Z,2.30
2019-01-18T08:49:12.037Z,2.30
2019-01-18T08:51:42.040Z,2.10
2019-01-18T08:54:12.069Z,1.85
2019-01-18T08:56:42.068Z,1.98
2019-01-18T08:59:12.100Z,2.17
2019-01-18T09:01:42.194Z,2.40
2019-01-18T09:07:23.640Z,2.30
2019-01-18T09:09:53.688Z,2.10
2019-01-18T09:12:23.669Z,2.02
2019-01-18T09:14:54.154Z,2.02
2019-01-18T09:17:24.462Z,2.30
2019-01-18T09:19:54.474Z,2.50
2019-01-18T09:22:24.539Z,2.40
2019-01-18T09:24:54.530Z,2.40
2019-01-18T09:27:24.531Z,2.40
2019-01-18T09:29:54.862Z,2.90
2019-01-18T09:32:24.912Z,3.08
2019-01-18T09:34:54.961Z,3.10
2019-01-18T09:37:25.080Z,2.87
2019-01-18T09:39:56.442Z,2.60
2019-01-18T09:42:26.493Z,2.55
2019-01-18T09:44:56.509Z,2.40
2019-01-18T09:47:26.611Z,2.50
2019-01-18T09:49:56.661Z,2.75
2019-01-18T09:52:26.690Z,3.52
2019-01-18T09:54:56.980Z,3.37
2019-01-18T09:57:26.986Z,2.90
2019-01-18T10:00:39.049Z,3.27
2019-01-18T10:03:09.050Z,2.50
2019-01-18T10:05:39.066Z,2.70
2019-01-18T10:08:11.007Z,3.20
2019-01-18T10:10:41.678Z,3.20
2019-01-18T10:13:11.691Z,2.45
2019-01-18T10:15:46.047Z,2.30
2019-01-18T10:18:16.507Z,3.10
2019-01-18T10:20:46.492Z,2.52
2019-01-18T10:23:16.937Z,2.52
2019-01-18T10:25:46.972Z,2.70
2019-01-18T10:28:17.004Z,2.65
2019-01-18T10:30:46.989Z,2.75
2019-01-18T10:33:17.301Z,2.72
2019-01-18T10:35:47.272Z,2.50
2019-01-18T10:38:17.293Z,2.47
2019-01-18T10:40:47.280Z,2.40
2019-01-18T10:43:17.307Z,2.20
2019-01-18T10:45:47.317Z,2.80
2019-01-18T10:48:17.687Z,3.00
2019-01-18T10:50:47.678Z,2.60
2019-01-18T10:53:17.713Z,2.22
2019-01-18T10:55:48.553Z,2.80
2019-01-18T10:58:18.585Z,2.55
2019-01-18T11:00:48.615Z,2.62
2019-01-18T11:03:18.653Z,2.50
2019-01-18T11:05:48.683Z,2.75
2019-01-18T11:08:18.744Z,2.45
2019-01-18T11:10:49.241Z,2.50
2019-01-18T11:13:19.259Z,2.77
2019-01-18T11:15:49.263Z,3.10
2019-01-18T11:18:20.519Z,3.00
2019-01-18T11:21:20.761Z,3.25
2019-01-18T11:23:51.278Z,2.25
2019-01-18T11:26:21.305Z,2.65
2019-01-18T11:28:51.285Z,2.35
2019-01-18T11:31:23.395Z,2.60
2019-01-18T11:33:52.997Z,2.12
2019-01-18T11:36:23.103Z,2.50
2019-01-18T11:38:54.479Z,1.85
2019-01-18T11:41:24.901Z,2.67
2019-01-18T11:43:54.877Z,2.10
2019-01-18T11:46:24.911Z,2.77
2019-01-18T11:48:54.904Z,2.40
2019-01-18T11:51:25.274Z,2.15
2019-01-18T11:53:55.370Z,2.50
2019-01-18T11:56:25.406Z,2.75
2019-01-18T11:58:55.734Z,2.65
2019-01-18T12:01:25.772Z,2.20
2019-01-18T12:03:56.518Z,2.85
2019-01-18T12:06:27.883Z,2.20
2019-01-18T12:08:58.275Z,2.40
2019-01-18T12:11:28.295Z,2.67
2019-01-18T12:13:58.276Z,2.83
2019-01-18T12:16:28.299Z,2.75
2019-01-18T12:18:58.301Z,2.25
2019-01-18T12:21:28.308Z,2.20
2019-01-18T12:23:58.634Z,2.50
2019-01-18T12:26:28.635Z,2.00
2019-01-18T12:28:58.926Z,2.15
2019-01-18T12:31:29.027Z,1.98
2019-01-18T12:33:59.420Z,2.12
2019-01-18T12:36:29.514Z,1.95
2019-01-18T12:38:59.850Z,2.10
2019-01-18T12:41:30.215Z,2.50
2019-01-18T12:44:00.210Z,2.00
2019-01-18T12:46:30.551Z,1.80
2019-01-18T12:49:00.555Z,2.35
2019-01-18T12:51:30.898Z,2.40
2019-01-18T12:54:02.002Z,2.30
2019-01-18T12:56:32.876Z,1.95
2019-01-18T12:59:02.935Z,2.10
2019-01-18T13:01:32.954Z,1.80
2019-01-18T13:04:03.073Z,2.25
2019-01-18T13:06:33.773Z,2.40
2019-01-18T13:09:05.303Z,2.25
2019-01-18T13:11:35.382Z,2.70
2019-01-18T13:14:05.783Z,2.70
2019-01-18T13:16:44.163Z,2.67
2019-01-18T13:19:17.486Z,2.58
2019-01-18T13:21:48.556Z,2.87
2019-01-18T13:24:19.059Z,2.85
2019-01-18T13:26:49.054Z,2.40
2019-01-18T13:29:19.041Z,3.33
2019-01-18T13:31:49.040Z,2.85
2019-01-18T13:34:19.065Z,2.60
2019-01-18T13:36:49.486Z,2.62
2019-01-18T13:39:19.582Z,2.40
2019-01-18T13:41:49.949Z,2.98
2019-01-18T13:44:20.016Z,2.95
2019-01-18T13:46:50.370Z,2.60
2019-01-18T13:49:20.390Z,2.70
2019-01-18T13:51:50.401Z,2.80
2019-01-18T13:54:20.468Z,2.30
2019-01-18T13:56:50.875Z,2.67
2019-01-18T13:59:20.902Z,2.85
2019-01-18T14:01:50.995Z,2.70
2019-01-18T14:04:20.991Z,2.60
2019-01-18T14:06:51.772Z,3.05
2019-01-18T14:09:21.793Z,2.55
2019-01-18T14:11:55.717Z,2.50
2019-01-18T14:14:24.070Z,2.52
2019-01-18T14:16:54.466Z,2.65
2019-01-18T14:19:24.810Z,2.25
2019-01-18T14:21:54.827Z,2.47
2019-01-18T14:24:25.158Z,3.27
2019-01-18T14:26:55.149Z,2.55
2019-01-18T14:29:25.188Z,2.50
2019-01-18T14:31:56.253Z,2.83
2019-01-18T14:34:26.759Z,3.80
2019-01-18T14:36:59.012Z,2.42
2019-01-18T14:39:29.027Z,3.00
2019-01-18T14:41:59.010Z,2.95
2019-01-18T14:44:29.077Z,2.75
2019-01-18T14:46:59.078Z,2.80
2019-01-18T14:49:32.487Z,2.47
2019-01-18T14:52:00.777Z,2.40
2019-01-18T14:54:31.259Z,2.35
2019-01-18T14:57:01.322Z,3.25
2019-01-18T14:59:31.709Z,2.80
2019-01-18T15:02:02.039Z,2.87
2019-01-18T15:04:33.135Z,2.37
2019-01-18T15:07:03.308Z,2.98
2019-01-18T15:09:33.293Z,2.62
2019-01-18T15:12:03.431Z,2.72
2019-01-18T15:14:33.442Z,2.80
2019-01-18T15:17:03.465Z,2.90
2019-01-18T15:19:33.819Z,3.20
2019-01-18T15:22:03.871Z,3.02
2019-01-18T15:24:34.017Z,3.27
2019-01-18T15:27:04.131Z,4.00
2019-01-18T15:29:34.531Z,3.52
2019-01-18T15:32:04.568Z,3.30
2019-01-18T15:34:34.654Z,2.98
2019-01-18T15:37:05.051Z,3.50
2019-01-18T15:39:35.395Z,3.58
2019-01-18T15:42:05.807Z,3.50
2019-01-18T15:44:35.854Z,3.92
2019-01-18T15:47:05.893Z,3.80
2019-01-18T15:49:35.987Z,4.28
2019-01-18T15:52:06.041Z,3.80
2019-01-18T15:54:36.074Z,3.45
2019-01-18T15:57:06.169Z,3.58
2019-01-18T15:59:37.166Z,3.50
2019-01-18T16:02:07.163Z,3.33
2019-01-18T16:04:37.158Z,4.22
2019-01-18T16:07:07.269Z,4.30
2019-01-18T16:09:37.293Z,5.33
2019-01-18T16:12:07.284Z,5.05
2019-01-18T16:14:37.295Z,4.80
2019-01-18T16:17:12.596Z,4.12
2019-01-18T16:19:42.602Z,4.80
2019-01-18T16:22:12.565Z,4.50
2019-01-18T16:24:43.119Z,5.05
2019-01-18T16:27:13.135Z,5.05
2019-01-18T16:29:43.148Z,5.30
2019-01-18T16:32:13.714Z,6.40
2019-01-18T16:34:43.740Z,5.90
2019-01-18T16:37:13.748Z,6.25
2019-01-18T16:39:43.810Z,8.23
2019-01-18T16:42:16.075Z,8.45
2019-01-18T16:44:46.085Z,7.72
2019-01-18T16:47:16.377Z,7.65
2019-01-18T16:49:46.367Z,7.72
2019-01-18T16:52:16.390Z,7.25
2019-01-18T16:54:46.393Z,7.12
2019-01-18T16:57:16.816Z,7.25
2019-01-18T16:59:47.186Z,7.05
2019-01-18T17:02:17.170Z,6.22
2019-01-18T17:04:47.218Z,6.70
2019-01-18T17:07:17.536Z,7.20
2019-01-18T17:09:47.579Z,5.55
2019-01-18T17:12:17.874Z,6.25
2019-01-18T17:14:47.904Z,6.25
2019-01-18T17:17:17.906Z,7.35
2019-01-18T17:19:48.224Z,10.98
2019-01-18T17:22:18.262Z,8.95
2019-01-18T17:24:48.262Z,9.30
2019-01-18T17:27:18.276Z,11.50
2019-01-18T17:29:48.819Z,14.35
2019-01-18T17:32:18.837Z,12.30
2019-01-18T17:34:49.634Z,8.90
2019-01-18T17:37:24.937Z,8.28
2019-01-18T17:40:25.559Z,7.75
2019-01-18T17:43:36.573Z,7.00
2019-01-18T17:46:35.432Z,5.60
2019-01-18T17:49:31.930Z,6.33
2019-01-18T17:52:45.474Z,6.17
2019-01-18T17:56:02.956Z,5.00
2019-01-18T17:58:58.867Z,4.60
2019-01-18T18:01:59.468Z,4.72
2019-01-18T18:05:16.785Z,6.62
2019-01-18T18:08:25.056Z,6.00
2019-01-18T18:11:31.898Z,5.53
2019-01-18T18:15:10.234Z,5.15
2019-01-18T18:18:05.819Z,5.28
2019-01-18T18:21:26.336Z,6.12
2019-01-18T18:24:16.946Z,4.70
2019-01-18T18:27:19.404Z,5.10
2019-01-18T18:30:06.298Z,4.85
2019-01-18T18:33:22.112Z,6.78
2019-01-18T18:36:17.415Z,5.03
2019-01-18T18:39:15.818Z,4.83
2019-01-18T18:42:28.377Z,4.22
2019-01-18T18:45:37.266Z,4.50
2019-01-18T18:48:39.639Z,5.22
2019-01-18T18:51:55.800Z,4.90
2019-01-18T18:55:01.388Z,4.67
2019-01-18T18:58:20.994Z,5.22
2019-01-18T19:01:14.193Z,5.35
2019-01-18T19:04:27.007Z,5.22
2019-01-18T19:07:46.218Z,5.55
2019-01-18T19:10:46.017Z,5.97
2019-01-18T19:13:47.056Z,5.75
2019-01-18T19:17:11.862Z,6.20
2019-01-18T19:20:43.890Z,4.90
2019-01-18T19:23:56.551Z,5.35
2019-01-18T19:26:59.679Z,5.92
2019-01-18T19:30:07.341Z,5.53
2019-01-18T19:33:06.722Z,5.25
2019-01-18T19:36:26.658Z,5.35
2019-01-18T19:39:18.673Z,5.33
2019-01-18T19:42:37.556Z,5.83
2019-01-18T19:45:41.123Z,5.40
2019-01-18T19:48:47.107Z,4.97
2019-01-18T19:51:46.449Z,5.75
2019-01-18T19:54:33.646Z,5.50
2019-01-18T19:57:25.784Z,5.00
2019-01-18T20:00:30.902Z,5.10
2019-01-18T20:03:39.346Z,6.70
2019-01-18T20:06:51.851Z,5.58
2019-01-18T20:10:14.294Z,5.08
2019-01-18T20:13:02.044Z,5.22
2019-01-18T20:16:04.154Z,5.35
2019-01-18T20:19:13.233Z,4.92
2019-01-18T20:22:13.471Z,4.17
2019-01-18T20:25:19.721Z,4.58
2019-01-18T20:28:44.382Z,3.90
2019-01-18T20:31:39.709Z,4.22
2019-01-18T20:34:52.595Z,4.72
2019-01-18T20:38:16.596Z,4.35
2019-01-18T20:41:24.190Z,4.12
2019-01-18T20:44:04.079Z,5.37
2019-01-18T20:47:00.861Z,4.67
2019-01-18T20:49:57.787Z,4.90
2019-01-18T20:53:20.803Z,4.50
2019-01-18T20:56:15.739Z,4.60
2019-01-18T20:59:42.309Z,4.72
2019-01-18T21:03:05.922Z,4.35
2019-01-18T21:06:01.939Z,5.08
2019-01-18T21:09:22.097Z,4.60
2019-01-18T21:12:25.061Z,5.62
2019-01-18T21:15:44.529Z,4.90
2019-01-18T21:18:55.723Z,4.25
2019-01-18T21:22:07.430Z,4.83
2019-01-18T21:25:14.032Z,4.45
2019-01-18T21:28:40.156Z,4.53
2019-01-18T21:31:44.976Z,4.92
2019-01-18T21:34:32.841Z,5.03
2019-01-18T21:37:28.736Z,5.50
2019-01-18T21:40:42.611Z,5.75
2019-01-18T21:43:56.123Z,5.40
2019-01-18T21:47:07.177Z,5.55
2019-01-18T21:50:09.945Z,5.60
2019-01-18T21:53:15.349Z,6.30
2019-01-18T21:56:29.759Z,5.45
2019-01-18T21:59:40.619Z,7.20
2019-01-18T22:02:36.442Z,6.37
2019-01-18T22:05:35.255Z,7.10
2019-01-18T22:08:50.398Z,6.50
2019-01-18T22:11:59.204Z,6.40
2019-01-18T22:15:12.405Z,7.42
2019-01-18T22:17:53.475Z,6.97
2019-01-18T22:20:56.468Z,7.28
2019-01-18T22:23:35.396Z,7.42
2019-01-18T22:26:49.637Z,7.40
2019-01-18T22:30:02.849Z,7.80
2019-01-18T22:32:41.613Z,7.20
2019-01-18T22:36:05.783Z,7.60
2019-01-18T22:39:22.134Z,7.15
2019-01-18T22:42:37.251Z,7.33
2019-01-18T22:45:25.198Z,7.22
2019-01-18T22:48:21.331Z,7.58
2019-01-18T22:51:12.236Z,7.28
2019-01-18T22:54:18.235Z,7.80
2019-01-18T22:57:32.812Z,7.03
2019-01-18T23:00:57.420Z,7.60
2019-01-18T23:04:04.508Z,7.40
2019-01-18T23:07:15.766Z,7.20
2019-01-18T23:10:50.929Z,7.47
2019-01-18T23:13:52.301Z,7.35
2019-01-18T23:17:12.278Z,6.75
2019-01-18T23:20:00.534Z,7.20
2019-01-18T23:22:39.376Z,6.87
2019-01-18T23:25:22.475Z,7.83
2019-01-18T23:28:14.020Z,6.97
2019-01-18T23:30:59.869Z,7.25
2019-01-18T23:34:04.717Z,7.92
2019-01-18T23:37:05.674Z,7.42
2019-01-18T23:40:02.202Z,6.78
2019-01-18T23:43:19.164Z,7.10
2019-01-18T23:46:21.160Z,6.75
2019-01-18T23:49:07.461Z,6.80
2019-01-18T23:52:08.618Z,5.75
2019-01-18T23:55:25.334Z,6.37
2019-01-18T23:58:48.242Z,6.03
